createdAt,value
2023-01-04T00:01:19.772Z,101777.03
2023-01-04T00:03:48.001Z,101773.47
2023-01-04T00:06:17.870Z,101772.63
2023-01-04T00:08:45.924Z,101766.16
2023-01-04T00:11:15.448Z,101752.50
2023-01-04T00:13:43.640Z,101759.69
2023-01-04T00:16:13.266Z,101689.69
2023-01-04T00:18:41.274Z,101747.97
2023-01-04T00:21:11.615Z,101749.22
2023-01-04T00:23:41.231Z,101743.78
2023-01-04T00:26:10.312Z,101703.03
2023-01-04T00:28:38.422Z,101678.88
2023-01-04T00:31:07.164Z,101725.56
2023-01-04T00:33:35.122Z,101707.53
2023-01-04T00:36:07.008Z,101722.84
2023-01-04T00:38:35.129Z,101712.00
2023-01-04T00:41:05.105Z,101704.91
2023-01-04T00:43:33.112Z,101713.06
2023-01-04T00:46:01.694Z,101704.91
2023-01-04T00:48:29.910Z,101697.59
2023-01-04T00:51:00.086Z,101681.59
2023-01-04T00:53:28.215Z,101697.59
2023-01-04T00:56:01.228Z,101696.75
2023-01-04T00:58:30.481Z,101695.91
2023-01-04T01:00:58.689Z,101683.47
2023-01-04T01:03:26.977Z,101690.47
2023-01-04T01:05:56.309Z,101682.31
2023-01-04T01:08:26.855Z,101672.66
2023-01-04T01:10:55.201Z,101673.94
2023-01-04T01:13:23.421Z,101675.84
2023-01-04T01:15:52.890Z,101631.56
2023-01-04T01:18:20.819Z,101660.56
2023-01-04T01:20:49.008Z,101647.81
2023-01-04T01:23:16.968Z,101652.41
2023-01-04T01:25:44.848Z,101648.66
2023-01-04T01:28:12.818Z,101647.00
2023-01-04T01:30:41.904Z,101627.47
2023-01-04T01:33:11.739Z,101627.47
2023-01-04T01:35:39.709Z,101626.09
2023-01-04T01:38:07.641Z,101633.19
2023-01-04T01:40:35.535Z,101629.84
2023-01-04T01:43:03.725Z,101569.19
2023-01-04T01:45:32.666Z,101619.81
2023-01-04T01:48:06.557Z,101618.78
2023-01-04T01:50:37.821Z,101575.53
2023-01-04T01:53:06.052Z,101610.81
2023-01-04T01:55:34.151Z,101612.50
2023-01-04T01:58:02.458Z,101600.78
2023-01-04T02:00:30.416Z,101601.63
2023-01-04T02:03:12.074Z,101576.69
2023-01-04T02:05:41.434Z,101595.34
2023-01-04T02:08:09.390Z,101600.78
2023-01-04T02:10:37.304Z,101593.66
2023-01-04T02:13:08.503Z,101557.72
2023-01-04T02:15:41.443Z,101595.34
2023-01-04T02:18:11.369Z,101547.94
2023-01-04T02:20:44.384Z,101534.47
2023-01-04T02:23:51.002Z,101571.25
2023-01-04T02:26:44.783Z,101579.88
2023-01-04T02:29:39.959Z,101547.97
2023-01-04T02:32:09.865Z,101574.66
2023-01-04T02:34:41.062Z,101530.13
2023-01-04T02:37:10.897Z,101532.66
2023-01-04T02:39:40.825Z,101561.91
2023-01-04T02:42:13.320Z,101553.03
2023-01-04T02:44:54.467Z,101561.06
2023-01-04T02:47:39.585Z,101513.25
2023-01-04T02:50:32.459Z,101546.63
2023-01-04T02:53:02.360Z,101541.19
2023-01-04T02:55:34.362Z,101497.13
2023-01-04T02:58:04.620Z,101517.09
2023-01-04T03:01:00.326Z,101525.72
2023-01-04T03:03:49.298Z,101529.47
2023-01-04T03:06:18.484Z,101484.22
2023-01-04T03:08:55.933Z,101507.13
2023-01-04T03:11:49.549Z,101519.47
2023-01-04T03:14:31.610Z,101508.53
2023-01-04T03:17:01.544Z,101500.44
2023-01-04T03:19:48.456Z,101442.09
2023-01-04T03:22:30.623Z,101401.63
2023-01-04T03:25:21.255Z,101495.41
2023-01-04T03:28:06.616Z,101485.13
2023-01-04T03:30:52.189Z,101488.72
2023-01-04T03:33:37.547Z,101481.59
2023-01-04T03:36:11.173Z,101456.44
2023-01-04T03:38:59.657Z,101457.31
2023-01-04T03:41:46.017Z,101469.88
2023-01-04T03:44:35.571Z,101469.09
2023-01-04T03:47:23.207Z,101465.31
2023-01-04T03:49:57.823Z,101470.13
2023-01-04T03:52:27.504Z,101441.59
2023-01-04T03:54:55.422Z,101464.47
2023-01-04T03:57:23.298Z,101457.16
2023-01-04T03:59:53.026Z,101419.19
2023-01-04T04:02:24.157Z,101394.88
2023-01-04T04:05:09.452Z,101443.78
2023-01-04T04:07:56.303Z,101440.00
2023-01-04T04:10:24.272Z,101443.56
2023-01-04T04:12:52.457Z,101433.75
2023-01-04T04:15:20.342Z,101431.03
2023-01-04T04:17:48.252Z,101431.66
2023-01-04T04:20:16.126Z,101420.75
2023-01-04T04:22:45.672Z,101437.94
2023-01-04T04:25:13.561Z,101437.94
2023-01-04T04:27:41.486Z,101434.38
2023-01-04T04:30:12.729Z,101435.22
2023-01-04T04:32:40.927Z,101418.06
2023-01-04T04:35:09.605Z,101426.03
2023-01-04T04:37:37.601Z,101406.31
2023-01-04T04:40:08.169Z,101423.50
2023-01-04T04:42:35.316Z,101420.59
2023-01-04T04:45:03.214Z,101424.16
2023-01-04T04:47:31.137Z,101408.69
2023-01-04T04:49:59.061Z,101425.00
2023-01-04T04:52:27.008Z,101414.97
2023-01-04T04:54:54.990Z,101412.25
2023-01-04T04:57:24.484Z,101407.63
2023-01-04T04:59:52.400Z,101394.25
2023-01-04T05:02:20.736Z,101400.31
2023-01-04T05:04:48.887Z,101394.88
2023-01-04T05:07:17.239Z,101409.53
2023-01-04T05:09:45.175Z,101401.38
2023-01-04T05:12:30.689Z,101387.81
2023-01-04T05:14:59.976Z,101398.44
2023-01-04T05:17:27.832Z,101389.44
2023-01-04T05:19:55.677Z,101399.47
2023-01-04T05:22:23.873Z,101399.28
2023-01-04T05:24:51.747Z,101382.97
2023-01-04T05:27:19.665Z,101379.41
2023-01-04T05:30:05.026Z,101385.69
2023-01-04T05:32:34.318Z,101380.25
2023-01-04T05:35:02.214Z,101377.53
2023-01-04T05:37:30.146Z,101381.94
2023-01-04T05:39:58.150Z,101379.41
2023-01-04T05:42:26.381Z,101366.69
2023-01-04T05:44:54.497Z,101354.13
2023-01-04T05:47:22.369Z,101356.41
2023-01-04T05:49:51.675Z,101344.09
2023-01-04T05:52:19.590Z,101359.38
2023-01-04T05:54:47.681Z,101341.19
2023-01-04T05:57:15.599Z,101303.94
2023-01-04T05:59:43.546Z,101333.03
2023-01-04T06:02:15.358Z,101333.03
2023-01-04T06:04:43.408Z,101331.16
2023-01-04T06:07:12.693Z,101328.44
2023-01-04T06:09:40.590Z,101324.88
2023-01-04T06:12:08.930Z,101317.56
2023-01-04T06:14:36.806Z,101311.06
2023-01-04T06:17:04.840Z,101319.44
2023-01-04T06:19:32.820Z,101321.97
2023-01-04T06:22:00.740Z,101317.56
2023-01-04T06:24:29.993Z,101307.09
2023-01-04T06:26:57.928Z,101301.47
2023-01-04T06:29:25.824Z,101326.56
2023-01-04T06:31:54.019Z,101304.81
2023-01-04T06:34:25.409Z,101296.88
2023-01-04T06:36:56.542Z,101294.34
2023-01-04T06:39:24.500Z,101293.94
2023-01-04T06:41:54.047Z,101293.94
2023-01-04T06:44:21.983Z,101307.53
2023-01-04T06:46:49.946Z,101292.06
2023-01-04T06:49:17.823Z,101285.78
2023-01-04T06:51:45.777Z,101293.94
2023-01-04T06:54:13.897Z,101291.22
2023-01-04T06:56:41.809Z,101292.91
2023-01-04T06:59:11.122Z,101293.09
2023-01-04T07:01:39.457Z,101281.38
2023-01-04T07:04:07.467Z,101264.03
2023-01-04T07:06:35.381Z,101290.19
2023-01-04T07:09:03.308Z,101286.63
2023-01-04T07:11:31.509Z,101289.34
2023-01-04T07:13:59.384Z,101285.56
2023-01-04T07:16:28.927Z,101282.03
2023-01-04T07:18:56.882Z,101292.06
2023-01-04T07:21:25.751Z,101234.31
2023-01-04T07:23:53.720Z,101282.84
2023-01-04T07:26:21.645Z,101282.84
2023-01-04T07:29:07.043Z,101265.75
2023-01-04T07:31:36.492Z,101280.56
2023-01-04T07:34:04.505Z,101275.75
2023-01-04T07:36:32.423Z,101223.63
2023-01-04T07:39:00.857Z,101287.47
2023-01-04T07:41:29.649Z,101264.06
2023-01-04T07:43:57.544Z,101272.22
2023-01-04T07:46:25.478Z,101275.53
2023-01-04T07:48:54.888Z,101252.97
2023-01-04T07:51:22.787Z,101278.25
2023-01-04T07:53:50.711Z,101279.09
2023-01-04T07:56:19.121Z,101288.94
2023-01-04T07:58:47.352Z,101287.25
2023-01-04T08:01:16.141Z,101275.31
2023-01-04T08:03:44.343Z,101298.97
2023-01-04T08:06:14.267Z,101298.97
2023-01-04T08:08:42.162Z,101293.53
2023-01-04T08:11:11.173Z,101291.66
2023-01-04T08:13:39.142Z,101282.66
2023-01-04T08:16:07.411Z,101278.25
2023-01-04T08:18:35.319Z,101279.94
2023-01-04T08:21:04.715Z,101297.09
2023-01-04T08:23:34.082Z,101285.38
2023-01-04T08:26:05.429Z,101277.22
2023-01-04T08:28:33.572Z,101279.94
2023-01-04T08:31:05.274Z,101285.56
2023-01-04T08:33:33.251Z,101280.78
2023-01-04T08:36:08.630Z,101271.78
2023-01-04T08:41:55.938Z,101269.91
2023-01-04T08:44:13.817Z,101272.63
2023-01-04T08:46:41.802Z,101275.34
2023-01-04T08:49:09.936Z,101270.94
2023-01-04T08:51:37.861Z,101259.22
2023-01-04T08:54:07.237Z,101252.53
2023-01-04T08:56:35.165Z,101227.03
2023-01-04T08:59:03.273Z,101254.63
2023-01-04T09:01:32.997Z,101266.34
2023-01-04T09:04:01.080Z,101242.72
2023-01-04T09:06:29.413Z,101266.34
2023-01-04T09:08:57.257Z,101266.34
2023-01-04T09:11:26.940Z,101253.38
2023-01-04T09:14:04.554Z,101261.75
2023-01-04T09:16:35.143Z,101268.22
2023-01-04T09:19:03.166Z,101269.06
2023-01-04T09:21:31.442Z,101265.50
2023-01-04T09:23:59.422Z,101261.94
2023-01-04T09:26:28.819Z,101241.47
2023-01-04T09:28:57.218Z,101262.78
2023-01-04T09:31:28.529Z,101203.19
2023-01-04T09:34:14.814Z,101267.19
2023-01-04T09:36:43.652Z,101234.16
2023-01-04T09:39:18.811Z,101258.19
2023-01-04T09:41:55.515Z,101246.72
2023-01-04T09:45:12.326Z,101253.59
2023-01-04T09:47:25.711Z,101219.94
2023-01-04T09:49:54.987Z,101242.09
2023-01-04T09:52:23.720Z,101246.50
2023-01-04T09:54:55.059Z,101239.19
2023-01-04T09:57:27.900Z,101225.19
2023-01-04T09:59:57.210Z,101239.19
2023-01-04T10:02:27.404Z,101223.72
2023-01-04T10:04:55.538Z,101219.31
2023-01-04T10:07:26.182Z,101226.00
2023-01-04T10:09:54.084Z,101231.03
2023-01-04T10:12:35.089Z,101237.50
2023-01-04T10:15:16.003Z,101220.16
2023-01-04T10:21:33.016Z,101239.19
2023-01-04T10:24:04.030Z,101240.22
2023-01-04T10:26:33.308Z,101225.78
2023-01-04T10:29:29.385Z,101223.91
2023-01-04T10:31:58.506Z,101172.03
2023-01-04T10:34:27.520Z,101183.13
2023-01-04T10:36:57.896Z,101207.81
2023-01-04T10:39:32.291Z,101214.09
2023-01-04T10:42:04.569Z,101205.72
2023-01-04T10:44:38.207Z,101199.25
2023-01-04T10:47:09.238Z,101200.53
2023-01-04T10:49:41.894Z,101206.75
2023-01-04T10:52:12.282Z,101196.72
2023-01-04T10:54:41.310Z,101182.72
2023-01-04T10:57:11.298Z,101201.31
2023-01-04T10:59:43.292Z,101195.09
2023-01-04T11:02:16.847Z,101065.03
2023-01-04T11:04:46.260Z,101180.44
2023-01-04T11:07:16.507Z,101175.00
2023-01-04T11:09:47.336Z,101128.78
2023-01-04T11:12:17.036Z,101115.44
2023-01-04T11:14:46.425Z,101174.78
2023-01-04T11:17:14.422Z,101166.84
2023-01-04T11:19:42.405Z,101173.94
2023-01-04T11:22:14.255Z,101171.25
2023-01-04T11:24:54.498Z,101163.94
2023-01-04T11:27:31.245Z,101157.66
2023-01-04T11:30:03.860Z,101163.09
2023-01-04T11:32:36.591Z,101136.34
2023-01-04T11:35:04.868Z,101145.94
2023-01-04T11:37:34.478Z,101153.25
2023-01-04T11:40:28.116Z,101145.09
2023-01-04T11:43:12.405Z,101148.66
2023-01-04T11:45:41.730Z,101137.78
2023-01-04T11:48:14.635Z,101125.03
2023-01-04T11:50:43.823Z,101145.94
2023-01-04T11:53:25.977Z,101132.34
2023-01-04T11:55:53.922Z,101125.03
2023-01-04T11:58:22.337Z,101132.34
2023-01-04T12:00:56.685Z,101139.66
2023-01-04T12:03:27.615Z,101084.72
2023-01-04T12:05:55.566Z,101140.75
2023-01-04T12:08:29.481Z,101120.66
2023-01-04T12:10:57.497Z,101123.38
2023-01-04T12:13:25.388Z,101106.66
2023-01-04T12:16:04.554Z,101120.88
2023-01-04T12:18:36.170Z,101092.22
2023-01-04T12:21:04.685Z,101111.03
2023-01-04T12:23:33.492Z,101046.88
2023-01-04T12:26:01.399Z,101083.66
2023-01-04T12:28:30.769Z,101102.47
2023-01-04T12:31:33.875Z,101099.75
2023-01-04T12:34:34.975Z,101095.34
2023-01-04T12:37:06.031Z,101093.69
2023-01-04T12:39:41.955Z,101099.97
2023-01-04T12:42:22.194Z,101111.66
2023-01-04T12:45:18.370Z,101089.91
2023-01-04T12:48:05.616Z,101096.41
2023-01-04T12:50:37.014Z,101083.88
2023-01-04T12:53:28.900Z,101083.69
2023-01-04T12:55:58.284Z,101026.00
2023-01-04T12:59:24.672Z,101084.72
2023-01-04T13:02:19.019Z,101081.16
2023-01-04T13:04:48.430Z,101079.47
2023-01-04T13:07:19.291Z,101085.75
2023-01-04T13:09:59.042Z,100996.13
2023-01-04T13:12:47.832Z,101054.41
2023-01-04T13:15:20.721Z,101055.47
2023-01-04T13:17:48.744Z,100972.94
2023-01-04T13:20:19.389Z,101072.81
2023-01-04T13:22:51.078Z,101073.84
2023-01-04T13:25:19.099Z,101081.16
2023-01-04T13:27:59.629Z,101078.25
2023-01-04T13:30:35.745Z,101083.69
2023-01-04T13:33:28.073Z,101079.28
2023-01-04T13:36:04.443Z,101074.88
2023-01-04T13:38:33.038Z,101071.13
2023-01-04T13:41:01.259Z,101054.41
2023-01-04T13:43:56.193Z,101072.81
2023-01-04T13:46:24.167Z,101063.38
2023-01-04T13:48:53.384Z,101069.25
2023-01-04T13:51:30.652Z,101070.09
2023-01-04T13:54:04.733Z,101073.84
2023-01-04T13:56:34.323Z,101064.66
2023-01-04T13:59:02.211Z,101073.63
2023-01-04T14:01:31.113Z,101085.31
2023-01-04T14:03:59.754Z,101048.34
2023-01-04T14:06:30.314Z,101065.47
2023-01-04T14:09:01.846Z,101031.66
2023-01-04T14:12:07.808Z,101050.00
2023-01-04T14:14:41.021Z,101043.72
2023-01-04T14:17:20.962Z,101035.56
2023-01-04T14:19:51.058Z,101040.41
2023-01-04T14:22:40.589Z,101043.53
2023-01-04T14:25:37.949Z,101050.22
2023-01-04T14:28:28.296Z,101033.28
2023-01-04T14:30:57.127Z,101042.91
2023-01-04T14:33:32.669Z,100917.59
2023-01-04T14:36:04.695Z,100967.31
2023-01-04T14:38:36.534Z,101053.78
2023-01-04T14:41:12.301Z,101051.06
2023-01-04T14:43:45.114Z,101050.22
2023-01-04T14:46:13.172Z,101044.78
2023-01-04T14:48:41.166Z,101033.94
2023-01-04T14:51:09.473Z,101044.56
2023-01-04T14:53:38.762Z,101043.75
2023-01-04T14:56:07.292Z,101049.16
2023-01-04T14:58:35.179Z,101053.56
2023-01-04T15:01:03.413Z,101047.91
2023-01-04T15:03:31.478Z,101053.56
2023-01-04T15:05:59.423Z,101057.09
2023-01-04T15:08:27.390Z,101018.25
2023-01-04T15:11:00.188Z,101029.53
2023-01-04T15:13:36.729Z,101036.41
2023-01-04T15:16:07.305Z,101045.41
2023-01-04T15:18:35.280Z,101044.56
2023-01-04T15:21:03.789Z,101042.91
2023-01-04T15:23:31.662Z,101042.91
2023-01-04T15:26:01.997Z,101040.81
2023-01-04T15:28:29.925Z,101010.13
2023-01-04T15:30:57.887Z,101037.47
2023-01-04T15:33:27.224Z,101043.72
2023-01-04T15:35:59.988Z,101042.69
2023-01-04T15:38:27.962Z,101038.28
2023-01-04T15:41:08.488Z,101039.97
2023-01-04T15:43:36.544Z,101038.28
2023-01-04T15:46:07.349Z,101042.69
2023-01-04T15:48:35.621Z,101046.25
2023-01-04T15:51:04.741Z,101007.19
2023-01-04T15:53:32.611Z,101029.09
2023-01-04T15:56:07.619Z,101029.94
2023-01-04T15:58:35.682Z,101025.53
2023-01-04T16:01:09.460Z,101025.53
2023-01-04T16:03:37.564Z,101009.47
2023-01-04T16:06:07.133Z,101032.03
2023-01-04T16:08:35.053Z,101031.22
2023-01-04T16:11:14.033Z,101033.69
2023-01-04T16:13:41.970Z,101011.59
2023-01-04T16:16:10.224Z,101002.81
2023-01-04T16:18:38.308Z,101027.41
2023-01-04T16:21:07.556Z,101024.94
2023-01-04T16:23:35.479Z,101001.72
2023-01-04T16:26:07.598Z,101010.91
2023-01-04T16:28:36.894Z,101007.59
2023-01-04T16:31:05.449Z,101000.28
2023-01-04T16:33:33.590Z,101017.81
2023-01-04T16:36:02.841Z,101030.38
2023-01-04T16:38:30.739Z,101038.72
2023-01-04T16:40:59.848Z,101024.09
2023-01-04T16:43:27.817Z,101023.25
2023-01-04T16:46:16.232Z,101001.50
2023-01-04T16:48:44.186Z,101015.09
2023-01-04T16:51:12.680Z,101017.81
2023-01-04T16:53:40.695Z,101014.25
2023-01-04T16:56:09.659Z,101005.28
2023-01-04T16:58:37.580Z,101016.97
2023-01-04T17:01:11.505Z,101022.63
2023-01-04T17:03:39.621Z,100970.66
2023-01-04T17:06:08.585Z,100972.28
2023-01-04T17:08:36.538Z,101001.50
2023-01-04T17:12:05.015Z,101002.34
2023-01-04T17:14:00.162Z,101009.88
2023-01-04T17:16:34.358Z,101009.22
2023-01-04T17:19:05.009Z,100954.34
2023-01-04T17:21:35.079Z,101020.09
2023-01-04T17:24:11.381Z,101028.88
2023-01-04T17:26:40.705Z,101025.56
2023-01-04T17:29:08.627Z,101035.16
2023-01-04T17:31:40.198Z,101040.81
2023-01-04T17:34:08.238Z,101032.66
2023-01-04T17:36:36.151Z,101033.50
2023-01-04T17:39:04.111Z,101028.88
2023-01-04T17:41:32.464Z,100989.44
2023-01-04T17:44:01.632Z,101039.56
2023-01-04T17:46:31.856Z,101031.41
2023-01-04T17:51:50.652Z,101011.53
2023-01-04T17:54:18.648Z,101015.31
2023-01-04T17:56:46.533Z,101001.97
2023-01-04T17:59:15.704Z,101021.78
2023-01-04T18:01:43.925Z,101032.66
2023-01-04T18:04:13.232Z,101040.81
2023-01-04T18:06:41.259Z,101045.41
2023-01-04T18:09:09.357Z,101048.97
2023-01-04T18:11:37.696Z,101054.19
2023-01-04T18:14:09.785Z,101032.03
2023-01-04T18:19:35.566Z,101061.69
2023-01-04T18:22:03.460Z,101074.44
2023-01-04T18:24:39.720Z,101061.91
2023-01-04T18:27:25.550Z,101070.69
2023-01-04T18:29:54.464Z,101065.25
2023-01-04T18:32:22.483Z,101074.25
2023-01-04T18:34:52.041Z,101066.09
2023-01-04T18:37:20.021Z,101067.13
2023-01-04T18:39:48.134Z,101057.94
2023-01-04T18:42:16.089Z,101055.22
2023-01-04T18:44:48.376Z,101055.44
2023-01-04T18:47:17.266Z,101059.81
2023-01-04T18:49:45.171Z,101076.31
2023-01-04T18:52:14.496Z,101082.00
2023-01-04T18:54:43.055Z,101086.59
2023-01-04T18:57:10.909Z,101077.38
2023-01-04T18:59:38.797Z,101083.66
2023-01-04T19:02:06.907Z,101084.47
2023-01-04T19:04:36.146Z,101068.41
2023-01-04T19:07:04.047Z,101055.63
2023-01-04T19:09:33.417Z,101044.75
2023-01-04T19:12:01.336Z,101046.44
2023-01-04T19:14:29.346Z,101037.25
2023-01-04T19:16:57.307Z,101050.84
2023-01-04T19:19:25.357Z,101050.84
2023-01-04T19:21:53.231Z,101071.13
2023-01-04T19:24:21.205Z,101085.31
2023-01-04T19:26:50.464Z,101077.81
2023-01-04T19:29:18.341Z,101078.22
2023-01-04T19:31:46.312Z,101065.47
2023-01-04T19:34:14.194Z,101057.31
2023-01-04T19:36:42.345Z,101067.13
2023-01-04T19:39:10.319Z,101084.28
2023-01-04T19:41:38.489Z,101087.00
2023-01-04T19:44:08.903Z,101078.84
2023-01-04T19:46:38.106Z,101082.41
2023-01-04T19:49:09.451Z,101070.69
2023-01-04T19:51:40.525Z,101073.41
2023-01-04T19:54:08.419Z,101050.19
2023-01-04T19:56:36.293Z,101060.03
2023-01-04T19:59:04.184Z,101066.31
2023-01-04T20:01:33.578Z,101084.47
2023-01-04T20:04:01.501Z,101092.88
2023-01-04T20:06:29.576Z,101079.47
2023-01-04T20:08:57.455Z,101086.59
2023-01-04T20:11:25.354Z,101088.47
2023-01-04T20:13:53.493Z,101079.28
2023-01-04T20:16:21.805Z,101076.31
2023-01-04T20:18:51.086Z,101079.03
2023-01-04T20:21:19.008Z,101091.19
2023-01-04T20:23:46.912Z,101084.91
2023-01-04T20:26:16.602Z,101093.91
2023-01-04T20:28:45.981Z,101093.91
2023-01-04T20:31:14.994Z,101102.91
2023-01-04T20:33:42.931Z,101108.34
2023-01-04T20:36:13.986Z,101115.41
2023-01-04T20:38:42.268Z,101103.75
2023-01-04T20:41:11.626Z,101111.66
2023-01-04T20:43:38.699Z,101110.63
2023-01-04T20:46:11.266Z,101115.22
2023-01-04T20:48:39.291Z,101108.75
2023-01-04T20:51:07.942Z,101107.06
2023-01-04T20:53:37.403Z,101108.09
2023-01-04T20:56:06.825Z,101107.25
2023-01-04T20:58:35.078Z,101115.41
2023-01-04T21:01:04.502Z,101113.78
2023-01-04T21:03:32.552Z,101121.28
2023-01-04T21:06:02.042Z,101120.03
2023-01-04T21:08:30.034Z,101107.91
2023-01-04T21:10:59.386Z,101115.41
2023-01-04T21:13:27.684Z,101123.56
2023-01-04T21:15:56.087Z,101102.25
2023-01-04T21:18:24.218Z,101108.75
2023-01-04T21:20:52.170Z,101111.06
2023-01-04T21:23:21.063Z,101113.78
2023-01-04T21:25:49.642Z,101114.81
2023-01-04T21:28:19.466Z,101115.66
2023-01-04T21:30:47.558Z,101117.53
2023-01-04T21:33:15.543Z,101111.25
2023-01-04T21:35:43.743Z,101119.22
2023-01-04T21:38:11.680Z,101113.13
2023-01-04T21:40:40.352Z,101125.88
2023-01-04T21:43:08.283Z,101122.13
2023-01-04T21:45:40.557Z,101122.31
2023-01-04T21:48:08.459Z,101131.31
2023-01-04T21:50:37.485Z,101135.91
2023-01-04T21:53:05.494Z,101134.22
2023-01-04T21:55:35.093Z,101117.72
2023-01-04T21:58:03.282Z,101127.56
2023-01-04T22:00:31.152Z,101120.44
2023-01-04T22:03:00.525Z,101131.31
2023-01-04T22:05:28.758Z,101116.69
2023-01-04T22:07:56.641Z,101124.84
2023-01-04T22:10:24.472Z,101115.66
2023-01-04T22:12:52.353Z,101110.22
2023-01-04T22:15:20.550Z,101110.22
2023-01-04T22:17:51.908Z,101113.97
2023-01-04T22:20:23.082Z,101124.84
2023-01-04T22:22:51.720Z,101113.97
2023-01-04T22:25:21.965Z,101107.69
2023-01-04T22:27:52.122Z,101119.41
2023-01-04T22:30:20.129Z,101116.69
2023-01-04T22:32:49.376Z,101114.81
2023-01-04T22:35:19.168Z,101112.09
2023-01-04T22:37:48.465Z,101117.53
2023-01-04T22:40:16.503Z,101121.28
2023-01-04T22:42:44.430Z,101111.25
2023-01-04T22:45:13.541Z,101112.09
2023-01-04T22:47:41.584Z,101121.09
2023-01-04T22:50:09.885Z,101124.63
2023-01-04T22:52:37.772Z,101128.19
2023-01-04T22:55:07.458Z,101127.34
2023-01-04T22:57:35.365Z,101134.03
2023-01-04T23:00:03.983Z,101143.88
2023-01-04T23:02:31.934Z,101153.06
2023-01-04T23:05:00.498Z,101152.00
2023-01-04T23:07:28.381Z,101145.94
2023-01-04T23:09:56.245Z,101140.31
2023-01-04T23:12:26.060Z,101148.47
2023-01-04T23:14:53.936Z,101149.50
2023-01-04T23:17:21.973Z,101144.06
2023-01-04T23:19:49.865Z,101142.38
2023-01-04T23:22:17.796Z,101134.03
2023-01-04T23:24:45.946Z,101132.16
2023-01-04T23:27:14.165Z,101120.44
2023-01-04T23:29:43.520Z,101135.91
2023-01-04T23:32:11.446Z,101128.59
2023-01-04T23:34:39.677Z,101127.75
2023-01-04T23:37:07.560Z,101127.75
2023-01-04T23:39:35.492Z,101142.38
2023-01-04T23:42:03.463Z,101140.50
2023-01-04T23:44:32.120Z,101148.66
2023-01-04T23:47:02.041Z,101154.94
2023-01-04T23:49:30.615Z,101160.38
2023-01-04T23:51:58.589Z,101161.41
2023-01-04T23:54:26.461Z,101159.75
2023-01-04T23:56:54.518Z,101143.47
2023-01-04T23:59:22.600Z,101158.09
